LJPZ/POW METAR and TAF weather

Enter ICAO airport designator
Station Type Date Time Source
LJPZ METAR 2020/01/27 17:00 UTC NOAA

LJPZ 271700Z 12002KT 8000 SCT026 07/06 Q1018


Station Type Date Time Source
LJPZ Decoded METAR 2020/01/27 17:00 UTC NOAA

Portoroz, Slovenia (LJPZ) 45-31N 013-34E
Jan 27, 2020 - 12:00 PM EST / 2020.01.27 1700 UTC
Wind: from the ESE (120 degrees) at 2 MPH (2 KT):0
Visibility: 4 mile(s):0
Sky conditions: partly cloudy
Temperature: 44 F (7 C)
Dew Point: 42 F (6 C)
Relative Humidity: 93%
Pressure (altimeter): 30.06 in. Hg (1018 hPa)
ob: LJPZ 271700Z 12002KT 8000 SCT026 07/06 Q1018
cycle: 17

Station Type Date Time Source
LJPZ TAF 2008/06/02 05:30 UTC NOAA

TAF TAF LJPZ 020530Z 021615 VRB02KT 6000 NSC
BECMG 0911 30005KT 9999 FEW040

Example: see airport list